Time,TemperatureF,DewpointF,PressureIn,WindDirection,WindDirectionDegrees,WindSpeedMPH,WindSpeedGustMPH,Humidity,HourlyPrecipIn,Conditions,Clouds,dailyrainin,SoftwareType,DateUTC
2013-03-05 00:00:00,65.1,61.1,29.72,SSW,202,3.0,14.0,87,0.00,,,0.00,Weather View 32 v70,2013-03-05 06:00:00,
2013-03-05 00:05:00,65.1,61.1,29.73,West,270,2.0,14.0,87,0.00,,,0.00,Weather View 32 v70,2013-03-05 06:05:00,
2013-03-05 00:10:00,65.0,61.0,29.73,SW,225,4.0,14.0,87,0.00,,,0.00,Weather View 32 v70,2013-03-05 06:10:00,
2013-03-05 00:15:00,65.0,61.0,29.73,SW,225,8.0,14.0,87,0.00,,,0.00,Weather View 32 v70,2013-03-05 06:15:00,
2013-03-05 00:20:00,65.0,61.0,29.73,WSW,247,7.0,14.0,87,0.00,,,0.00,Weather View 32 v70,2013-03-05 06:20:00,
2013-03-05 00:25:00,64.9,60.9,29.73,WSW,247,6.0,14.0,87,0.00,,,0.00,Weather View 32 v70,2013-03-05 06:25:00,
2013-03-05 00:30:00,64.9,60.9,29.73,SSW,202,5.0,14.0,87,0.00,,,0.00,Weather View 32 v70,2013-03-05 06:30:00,
2013-03-05 00:35:00,64.8,61.2,29.73,SSW,202,6.0,14.0,88,0.00,,,0.00,Weather View 32 v70,2013-03-05 06:35:00,
2013-03-05 00:40:00,64.8,61.2,29.72,SSW,202,5.0,14.0,88,0.00,,,0.00,Weather View 32 v70,2013-03-05 06:40:00,
2013-03-05 00:45:00,64.8,61.2,29.72,SW,225,4.0,14.0,88,0.00,,,0.00,Weather View 32 v70,2013-03-05 06:45:00,
2013-03-05 00:50:00,64.7,61.1,29.72,SSW,202,7.0,12.0,88,0.00,,,0.00,Weather View 32 v70,2013-03-05 06:50:00,
2013-03-05 00:55:00,64.6,50.8,29.72,SW,225,7.0,12.0,61,0.00,,,0.00,Weather View 32 v70,2013-03-05 06:55:00,
2013-03-05 01:00:00,64.5,56.4,29.72,SSW,202,6.0,11.0,75,0.00,,,0.00,Weather View 32 v70,2013-03-05 07:00:00,
2013-03-05 01:05:00,64.4,54.4,29.72,SSW,202,5.0,11.0,70,0.00,,,0.00,Weather View 32 v70,2013-03-05 07:05:00,
2013-03-05 01:10:00,64.4,55.5,29.72,SSW,202,5.0,11.0,73,0.00,,,0.00,Weather View 32 v70,2013-03-05 07:10:00,
2013-03-05 01:16:00,64.3,53.1,29.72,SSW,202,4.0,11.0,67,0.00,,,0.00,Weather View 32 v70,2013-03-05 07:16:00,
2013-03-05 01:21:00,64.3,55.1,29.72,SW,225,7.0,12.0,72,0.00,,,0.00,Weather View 32 v70,2013-03-05 07:21:00,
2013-03-05 01:26:00,64.3,55.4,29.72,SW,225,5.0,12.0,73,0.00,,,0.00,Weather View 32 v70,2013-03-05 07:26:00,
2013-03-05 01:31:00,64.3,57.3,29.71,SW,225,7.0,12.0,78,0.00,,,0.00,Weather View 32 v70,2013-03-05 07:31:00,
2013-03-05 01:36:00,64.2,55.3,29.72,SW,225,6.0,12.0,73,0.00,,,0.00,Weather View 32 v70,2013-03-05 07:36:00,
2013-03-05 01:41:00,64.3,56.2,29.71,SW,225,3.0,12.0,75,0.00,,,0.00,Weather View 32 v70,2013-03-05 07:41:00,
2013-03-05 01:46:00,64.1,55.6,29.71,SSW,202,5.0,12.0,74,0.00,,,0.00,Weather View 32 v70,2013-03-05 07:46:00,
2013-03-05 01:51:00,64.1,57.4,29.71,SW,225,10.0,12.0,79,0.00,,,0.00,Weather View 32 v70,2013-03-05 07:51:00,
2013-03-05 01:56:00,64.1,57.8,29.71,SW,225,6.0,12.0,80,0.00,,,0.00,Weather View 32 v70,2013-03-05 07:56:00,
2013-03-05 02:01:00,64.0,55.1,29.71,SW,225,7.0,12.0,73,0.00,,,0.00,Weather View 32 v70,2013-03-05 08:01:00,
2013-03-05 02:06:00,64.0,56.3,29.71,SW,225,5.0,12.0,76,0.00,,,0.00,Weather View 32 v70,2013-03-05 08:06:00,
2013-03-05 02:11:00,63.9,56.2,29.71,SW,225,7.0,12.0,76,0.00,,,0.00,Weather View 32 v70,2013-03-05 08:11:00,
2013-03-05 02:16:00,63.9,54.3,29.71,SSW,202,4.0,12.0,71,0.00,,,0.00,Weather View 32 v70,2013-03-05 08:16:00,
2013-03-05 02:21:00,64.1,54.9,29.71,SW,225,4.0,12.0,72,0.00,,,0.00,Weather View 32 v70,2013-03-05 08:21:00,
2013-03-05 02:26:00,64.0,55.9,29.71,SSW,202,9.0,12.0,75,0.00,,,0.00,Weather View 32 v70,2013-03-05 08:26:00,
2013-03-05 02:31:00,63.9,55.1,29.70,SSW,202,8.0,12.0,73,0.00,,,0.00,Weather View 32 v70,2013-03-05 08:31:00,
2013-03-05 02:36:00,63.9,57.6,29.70,SSW,202,6.0,12.0,80,0.00,,,0.00,Weather View 32 v70,2013-03-05 08:36:00,
2013-03-05 02:41:00,63.9,54.3,29.70,SSW,202,9.0,12.0,71,0.00,,,0.00,Weather View 32 v70,2013-03-05 08:41:00,
2013-03-05 02:46:00,63.9,53.5,29.70,SW,225,6.0,12.0,69,0.00,,,0.00,Weather View 32 v70,2013-03-05 08:46:00,
2013-03-05 02:51:00,63.8,57.1,29.69,SSW,202,7.0,12.0,79,0.00,,,0.00,Weather View 32 v70,2013-03-05 08:51:00,
2013-03-05 02:56:00,63.8,54.2,29.69,SW,225,9.0,12.0,71,0.00,,,0.00,Weather View 32 v70,2013-03-05 08:56:00,
2013-03-05 03:01:00,63.7,56.7,29.69,SSW,202,7.0,12.0,78,0.00,,,0.00,Weather View 32 v70,2013-03-05 09:01:00,
2013-03-05 03:06:00,63.7,55.6,29.70,SW,225,6.0,12.0,75,0.00,,,0.00,Weather View 32 v70,2013-03-05 09:06:00,
2013-03-05 03:11:00,63.8,55.7,29.70,SW,225,6.0,12.0,75,0.00,,,0.00,Weather View 32 v70,2013-03-05 09:11:00,
2013-03-05 03:16:00,63.8,55.7,29.70,SSW,202,6.0,12.0,75,0.00,,,0.00,Weather View 32 v70,2013-03-05 09:16:00,
2013-03-05 03:21:00,63.9,53.5,29.70,SSW,202,10.0,12.0,69,0.00,,,0.00,Weather View 32 v70,2013-03-05 09:21:00,
2013-03-05 03:26:00,63.9,55.8,29.70,SW,225,9.0,13.0,75,0.00,,,0.00,Weather View 32 v70,2013-03-05 09:26:00,
2013-03-05 03:31:00,63.9,55.4,29.71,SW,225,7.0,13.0,74,0.00,,,0.00,Weather View 32 v70,2013-03-05 09:31:00,
2013-03-05 03:36:00,64.1,55.6,29.71,SW,225,8.0,13.0,74,0.00,,,0.00,Weather View 32 v70,2013-03-05 09:36:00,
2013-03-05 03:41:00,64.2,55.7,29.71,SSW,202,7.0,16.0,74,0.00,,,0.00,Weather View 32 v70,2013-03-05 09:41:00,
2013-03-05 03:46:00,64.4,55.9,29.71,SW,225,10.0,16.0,74,0.00,,,0.00,Weather View 32 v70,2013-03-05 09:46:00,
2013-03-05 03:51:00,64.6,56.1,29.71,WSW,247,11.0,16.0,74,0.00,,,0.00,Weather View 32 v70,2013-03-05 09:51:00,
2013-03-05 03:56:00,64.8,56.3,29.71,SW,225,10.0,16.0,74,0.00,,,0.00,Weather View 32 v70,2013-03-05 09:56:00,
2013-03-05 04:01:00,65.1,58.8,29.71,WSW,247,13.0,21.0,80,0.00,,,0.00,Weather View 32 v70,2013-03-05 10:01:00,
2013-03-05 04:06:00,65.3,60.0,29.71,SW,225,7.0,22.0,83,0.00,,,0.00,Weather View 32 v70,2013-03-05 10:06:00,
2013-03-05 04:11:00,65.4,61.1,29.72,SW,225,9.0,22.0,86,0.00,,,0.00,Weather View 32 v70,2013-03-05 10:11:00,
2013-03-05 04:17:00,65.8,65.2,29.72,WSW,247,8.0,22.0,98,0.00,,,0.00,Weather View 32 v70,2013-03-05 10:17:00,
2013-03-05 04:22:00,65.9,64.4,29.72,WSW,247,9.0,22.0,95,0.00,,,0.00,Weather View 32 v70,2013-03-05 10:22:00,
2013-03-05 04:27:00,65.9,65.0,29.73,SW,225,1.0,22.0,97,0.00,,,0.00,Weather View 32 v70,2013-03-05 10:27:00,
2013-03-05 04:32:00,66.4,65.5,29.77,WNW,292,6.0,22.0,97,0.00,,,0.00,Weather View 32 v70,2013-03-05 10:32:00,
2013-03-05 04:37:00,66.8,65.3,29.81,WNW,292,6.0,22.0,95,0.00,,,0.00,Weather View 32 v70,2013-03-05 10:37:00,
2013-03-05 04:42:00,66.9,65.7,29.77,SW,225,3.0,22.0,96,0.00,,,0.00,Weather View 32 v70,2013-03-05 10:42:00,
2013-03-05 04:47:00,66.9,64.8,29.81,NNW,337,6.0,22.0,93,0.00,,,0.00,Weather View 32 v70,2013-03-05 10:47:00,
2013-03-05 04:52:00,67.1,65.3,29.81,WNW,292,7.0,22.0,94,0.00,,,0.00,Weather View 32 v70,2013-03-05 10:52:00,
2013-03-05 04:57:00,67.1,65.0,29.81,NW,315,6.0,22.0,93,0.00,,,0.00,Weather View 32 v70,2013-03-05 10:57:00,
2013-03-05 05:02:00,67.2,65.1,29.82,West,270,7.0,22.0,93,0.00,,,0.00,Weather View 32 v70,2013-03-05 11:02:00,
2013-03-05 05:07:00,67.3,64.9,29.80,NW,315,8.0,17.0,92,0.00,,,0.00,Weather View 32 v70,2013-03-05 11:07:00,
2013-03-05 05:12:00,67.5,64.8,29.82,West,270,6.0,17.0,91,0.00,,,0.00,Weather View 32 v70,2013-03-05 11:12:00,
2013-03-05 05:17:00,67.6,65.2,29.81,WNW,292,6.0,17.0,92,0.00,,,0.00,Weather View 32 v70,2013-03-05 11:17:00,
2013-03-05 05:22:00,67.5,64.8,29.83,WNW,292,4.0,17.0,91,0.00,,,0.00,Weather View 32 v70,2013-03-05 11:22:00,
2013-03-05 05:27:00,67.5,64.5,29.83,NW,315,7.0,17.0,90,0.00,,,0.00,Weather View 32 v70,2013-03-05 11:27:00,
2013-03-05 05:32:00,67.5,64.5,29.83,WNW,292,2.0,17.0,90,0.00,,,0.00,Weather View 32 v70,2013-03-05 11:32:00,
2013-03-05 05:37:00,67.5,64.5,29.83,WNW,292,7.0,17.0,90,0.00,,,0.00,Weather View 32 v70,2013-03-05 11:37:00,
2013-03-05 05:42:00,67.4,63.1,29.83,WSW,247,3.0,14.0,86,0.00,,,0.00,Weather View 32 v70,2013-03-05 11:42:00,
2013-03-05 05:47:00,67.3,63.3,29.84,NW,315,4.0,14.0,87,0.00,,,0.00,Weather View 32 v70,2013-03-05 11:47:00,
2013-03-05 05:52:00,67.3,63.6,29.84,WNW,292,4.0,14.0,88,0.00,,,0.00,Weather View 32 v70,2013-03-05 11:52:00,
2013-03-05 05:57:00,67.2,63.8,29.84,WNW,292,5.0,14.0,89,0.00,,,0.00,Weather View 32 v70,2013-03-05 11:57:00,
2013-03-05 06:02:00,67.1,64.1,29.84,WNW,292,2.0,14.0,90,0.00,,,0.00,Weather View 32 v70,2013-03-05 12:02:00,
2013-03-05 06:07:00,66.9,63.2,29.84,NW,315,1.0,14.0,88,0.00,,,0.00,Weather View 32 v70,2013-03-05 12:07:00,
2013-03-05 06:12:00,66.9,63.5,29.85,SSW,202,6.0,11.0,89,0.00,,,0.00,Weather View 32 v70,2013-03-05 12:12:00,
2013-03-05 06:17:00,66.8,63.8,29.85,SW,225,4.0,9.0,90,0.00,,,0.00,Weather View 32 v70,2013-03-05 12:17:00,
2013-03-05 06:22:00,66.6,62.9,29.85,SW,225,4.0,9.0,88,0.00,,,0.00,Weather View 32 v70,2013-03-05 12:22:00,
2013-03-05 06:27:00,66.5,63.5,29.85,West,270,2.0,9.0,90,0.00,,,0.00,Weather View 32 v70,2013-03-05 12:27:00,
2013-03-05 06:32:00,66.3,63.3,29.84,WSW,247,4.0,9.0,90,0.00,,,0.00,Weather View 32 v70,2013-03-05 12:32:00,
2013-03-05 06:37:00,65.9,62.9,29.84,WSW,247,6.0,9.0,90,0.00,,,0.00,Weather View 32 v70,2013-03-05 12:37:00,
2013-03-05 06:42:00,65.7,63.3,29.85,WSW,247,4.0,7.0,92,0.00,,,0.00,Weather View 32 v70,2013-03-05 12:42:00,
2013-03-05 06:48:00,65.6,62.9,29.84,WSW,247,4.0,7.0,91,0.00,,,0.00,Weather View 32 v70,2013-03-05 12:48:00,
2013-03-05 06:53:00,65.6,62.9,29.84,West,270,5.0,7.0,91,0.00,,,0.00,Weather View 32 v70,2013-03-05 12:53:00,
2013-03-05 06:58:00,65.4,63.6,29.85,WSW,247,3.0,7.0,94,0.00,,,0.00,Weather View 32 v70,2013-03-05 12:58:00,
2013-03-05 07:03:00,65.5,64.0,29.85,West,270,1.0,7.0,95,0.00,,,0.00,Weather View 32 v70,2013-03-05 13:03:00,
2013-03-05 07:08:00,65.9,59.9,29.86,WNW,292,2.0,7.0,81,0.00,,,0.00,Weather View 32 v70,2013-03-05 13:08:00,
2013-03-05 07:13:00,65.8,64.0,29.86,WNW,292,2.0,7.0,94,0.00,,,0.00,Weather View 32 v70,2013-03-05 13:13:00,
2013-03-05 07:18:00,65.9,63.8,29.86,WNW,292,1.0,7.0,93,0.00,,,0.00,Weather View 32 v70,2013-03-05 13:18:00,
2013-03-05 07:23:00,65.9,62.6,29.87,WNW,292,3.0,7.0,89,0.00,,,0.00,Weather View 32 v70,2013-03-05 13:23:00,
2013-03-05 07:28:00,65.9,63.2,29.87,WNW,292,4.0,7.0,91,0.00,,,0.00,Weather View 32 v70,2013-03-05 13:28:00,
2013-03-05 07:33:00,65.9,64.1,29.87,WNW,292,2.0,7.0,94,0.00,,,0.00,Weather View 32 v70,2013-03-05 13:33:00,
2013-03-05 07:38:00,65.7,63.0,29.87,North,360,20.0,20.0,91,0.00,,,0.00,Weather View 32 v70,2013-03-05 13:38:00,
2013-03-05 07:43:00,64.3,61.6,29.89,NNW,337,6.0,22.0,91,0.00,,,0.00,Weather View 32 v70,2013-03-05 13:43:00,
2013-03-05 07:48:00,63.3,58.4,29.89,NNW,337,9.0,22.0,84,0.00,,,0.00,Weather View 32 v70,2013-03-05 13:48:00,
2013-03-05 07:53:00,62.8,59.5,29.90,North,360,9.0,22.0,89,0.00,,,0.00,Weather View 32 v70,2013-03-05 13:53:00,
2013-03-05 07:58:00,61.9,57.0,29.90,NNW,337,11.0,22.0,84,0.00,,,0.00,Weather View 32 v70,2013-03-05 13:58:00,
2013-03-05 08:03:00,61.4,55.8,29.91,NNW,337,16.0,22.0,82,0.00,,,0.00,Weather View 32 v70,2013-03-05 14:03:00,
2013-03-05 08:08:00,60.9,54.3,29.91,NNW,337,12.0,22.0,79,0.00,,,0.00,Weather View 32 v70,2013-03-05 14:08:00,
2013-03-05 08:13:00,60.6,55.7,29.92,NW,315,12.0,22.0,84,0.00,,,0.00,Weather View 32 v70,2013-03-05 14:13:00,
2013-03-05 08:18:00,60.5,55.0,29.93,NW,315,12.0,22.0,82,0.00,,,0.00,Weather View 32 v70,2013-03-05 14:18:00,
2013-03-05 08:23:00,60.3,54.1,29.93,North,360,11.0,22.0,80,0.00,,,0.00,Weather View 32 v70,2013-03-05 14:23:00,
2013-03-05 08:28:00,60.3,53.0,29.93,North,360,6.0,22.0,77,0.00,,,0.00,Weather View 32 v70,2013-03-05 14:28:00,
2013-03-05 08:33:00,60.0,53.5,29.94,NNW,337,11.0,22.0,79,0.00,,,0.00,Weather View 32 v70,2013-03-05 14:33:00,
2013-03-05 08:38:00,60.0,52.0,29.95,NNW,337,14.0,22.0,75,0.00,,,0.00,Weather View 32 v70,2013-03-05 14:38:00,
2013-03-05 08:43:00,59.9,52.7,29.95,NW,315,10.0,22.0,77,0.00,,,0.00,Weather View 32 v70,2013-03-05 14:43:00,
2013-03-05 08:48:00,59.8,51.8,29.95,North,360,15.0,23.0,75,0.00,,,0.00,Weather View 32 v70,2013-03-05 14:48:00,
2013-03-05 08:53:00,59.7,52.5,29.96,North,360,11.0,24.0,77,0.00,,,0.00,Weather View 32 v70,2013-03-05 14:53:00,
2013-03-05 08:58:00,59.8,51.5,29.96,NW,315,19.0,24.0,74,0.00,,,0.00,Weather View 32 v70,2013-03-05 14:58:00,
2013-03-05 09:03:00,59.6,51.6,29.97,NNE,22,18.0,28.0,75,0.00,,,0.00,Weather View 32 v70,2013-03-05 15:03:00,
2013-03-05 09:08:00,59.4,50.7,29.97,NE,45,20.0,29.0,73,0.00,,,0.00,Weather View 32 v70,2013-03-05 15:08:00,
2013-03-05 09:13:00,59.6,50.5,29.98,North,360,7.0,29.0,72,0.00,,,0.00,Weather View 32 v70,2013-03-05 15:13:00,
2013-03-05 09:18:00,59.6,51.3,29.97,NNW,337,12.0,29.0,74,0.00,,,0.00,Weather View 32 v70,2013-03-05 15:18:00,
2013-03-05 09:24:00,59.4,51.1,29.98,NNW,337,7.0,29.0,74,0.00,,,0.00,Weather View 32 v70,2013-03-05 15:24:00,
2013-03-05 09:29:00,59.1,50.1,29.99,North,360,14.0,29.0,72,0.00,,,0.00,Weather View 32 v70,2013-03-05 15:29:00,
2013-03-05 09:34:00,59.2,49.0,29.98,NNE,22,15.0,29.0,69,0.00,,,0.00,Weather View 32 v70,2013-03-05 15:34:00,
2013-03-05 09:39:00,59.9,49.7,29.99,NNE,22,11.0,29.0,69,0.00,,,0.00,Weather View 32 v70,2013-03-05 15:39:00,
2013-03-05 09:44:00,60.6,51.5,29.99,NNE,22,16.0,29.0,72,0.00,,,0.00,Weather View 32 v70,2013-03-05 15:44:00,
2013-03-05 09:49:00,61.4,53.0,29.98,NNE,22,11.0,29.0,74,0.00,,,0.00,Weather View 32 v70,2013-03-05 15:49:00,
2013-03-05 09:54:00,60.9,51.8,29.98,NNE,22,11.0,29.0,72,0.00,,,0.00,Weather View 32 v70,2013-03-05 15:54:00,
2013-03-05 09:59:00,61.4,52.3,29.98,NE,45,15.0,29.0,72,0.00,,,0.00,Weather View 32 v70,2013-03-05 15:59:00,
2013-03-05 10:04:00,62.2,53.0,29.99,NE,45,11.0,29.0,72,0.00,,,0.00,Weather View 32 v70,2013-03-05 16:04:00,
2013-03-05 10:09:00,62.2,53.0,29.98,NE,45,16.0,26.0,72,0.00,,,0.00,Weather View 32 v70,2013-03-05 16:09:00,
2013-03-05 10:14:00,62.2,51.5,29.98,North,360,15.0,26.0,68,0.00,,,0.00,Weather View 32 v70,2013-03-05 16:14:00,
2013-03-05 10:19:00,62.5,52.2,29.99,NNE,22,16.0,26.0,69,0.00,,,0.00,Weather View 32 v70,2013-03-05 16:19:00,
2013-03-05 10:24:00,62.9,52.9,29.99,NE,45,9.0,26.0,70,0.00,,,0.00,Weather View 32 v70,2013-03-05 16:24:00,
2013-03-05 10:29:00,63.4,52.2,29.99,NE,45,9.0,26.0,67,0.00,,,0.00,Weather View 32 v70,2013-03-05 16:29:00,
2013-03-05 10:34:00,63.4,54.2,29.99,NE,45,14.0,26.0,72,0.00,,,0.00,Weather View 32 v70,2013-03-05 16:34:00,
2013-03-05 10:39:00,63.4,52.6,29.99,North,360,12.0,26.0,68,0.00,,,0.00,Weather View 32 v70,2013-03-05 16:39:00,
2013-03-05 10:44:00,64.4,54.8,29.99,NNE,22,8.0,26.0,71,0.00,,,0.00,Weather View 32 v70,2013-03-05 16:44:00,
2013-03-05 10:49:00,63.9,52.3,30.00,NE,45,16.0,26.0,66,0.00,,,0.00,Weather View 32 v70,2013-03-05 16:49:00,
2013-03-05 10:54:00,63.8,52.2,30.00,North,360,11.0,26.0,66,0.00,,,0.00,Weather View 32 v70,2013-03-05 16:54:00,
2013-03-05 10:59:00,64.1,51.6,30.00,NNE,22,7.0,26.0,64,0.00,,,0.00,Weather View 32 v70,2013-03-05 16:59:00,
2013-03-05 11:04:00,64.3,52.7,30.00,NNE,22,10.0,26.0,66,0.00,,,0.00,Weather View 32 v70,2013-03-05 17:04:00,
2013-03-05 11:11:00,63.7,49.1,30.00,NE,45,12.0,26.0,59,0.00,,,0.00,Weather View 32 v70,2013-03-05 17:11:00,
2013-03-05 11:26:00,65.6,39.9,30.01,North,360,9.0,23.0,39,0.00,,,0.00,Weather View 32 v70,2013-03-05 17:26:00,
2013-03-05 11:58:00,66.5,53.5,30.01,NNE,22,9.0,23.0,63,0.00,,,0.00,Weather View 32 v70,2013-03-05 17:58:00,
2013-03-05 12:03:00,67.0,54.0,30.01,North,360,8.0,21.0,63,0.00,,,0.00,Weather View 32 v70,2013-03-05 18:03:00,
2013-03-05 12:08:00,67.3,53.4,30.01,NNW,337,12.0,13.0,61,0.00,,,0.00,Weather View 32 v70,2013-03-05 18:08:00,
2013-03-05 12:13:00,66.9,52.5,30.01,North,360,15.0,15.0,60,0.00,,,0.00,Weather View 32 v70,2013-03-05 18:13:00,
2013-03-05 12:18:00,67.5,53.5,30.01,North,360,11.0,16.0,61,0.00,,,0.00,Weather View 32 v70,2013-03-05 18:18:00,
2013-03-05 12:23:00,66.7,53.7,30.01,NNW,337,18.0,18.0,63,0.00,,,0.00,Weather View 32 v70,2013-03-05 18:23:00,
2013-03-05 12:28:00,67.3,54.7,30.01,North,360,19.0,19.0,64,0.00,,,0.00,Weather View 32 v70,2013-03-05 18:28:00,
2013-03-05 12:36:00,67.6,25.0,30.01,NNE,22,9.0,19.0,20,0.00,,,0.00,Weather View 32 v70,2013-03-05 18:36:00,
2013-03-05 13:00:00,67.3,23.5,30.00,North,360,17.0,19.0,19,0.00,,,0.00,Weather View 32 v70,2013-03-05 19:00:00,
2013-03-05 13:11:00,67.1,24.6,30.00,North,360,8.0,19.0,20,0.00,,,0.00,Weather View 32 v70,2013-03-05 19:11:00,
2013-03-05 13:20:00,67.8,50.0,30.00,North,360,15.0,19.0,53,0.00,,,0.00,Weather View 32 v70,2013-03-05 19:20:00,
2013-03-05 13:25:00,67.9,51.1,30.00,NW,315,11.0,19.0,55,0.00,,,0.00,Weather View 32 v70,2013-03-05 19:25:00,
2013-03-05 13:30:00,68.1,52.7,30.00,North,360,8.0,19.0,58,0.00,,,0.00,Weather View 32 v70,2013-03-05 19:30:00,
2013-03-05 13:35:00,67.6,51.3,29.99,NNE,22,11.0,17.0,56,0.00,,,0.00,Weather View 32 v70,2013-03-05 19:35:00,
2013-03-05 13:40:00,67.9,50.1,29.99,NNE,22,18.0,21.0,53,0.00,,,0.00,Weather View 32 v70,2013-03-05 19:40:00,
2013-03-05 13:45:00,67.8,49.5,30.00,NNE,22,11.0,21.0,52,0.00,,,0.00,Weather View 32 v70,2013-03-05 19:45:00,
2013-03-05 13:50:00,68.6,50.7,30.00,NNW,337,10.0,21.0,53,0.00,,,0.00,Weather View 32 v70,2013-03-05 19:50:00,
2013-03-05 13:55:00,68.4,50.0,29.99,NNE,22,16.0,21.0,52,0.00,,,0.00,Weather View 32 v70,2013-03-05 19:55:00,
2013-03-05 14:00:00,68.6,51.7,30.00,North,360,19.0,21.0,55,0.00,,,0.00,Weather View 32 v70,2013-03-05 20:00:00,
2013-03-05 14:05:00,68.8,50.9,29.99,NNE,22,13.0,21.0,53,0.00,,,0.00,Weather View 32 v70,2013-03-05 20:05:00,
2013-03-05 14:10:00,69.2,51.8,30.00,North,360,24.0,24.0,54,0.00,,,0.00,Weather View 32 v70,2013-03-05 20:10:00,
2013-03-05 14:15:00,68.7,50.3,30.00,NNE,22,17.0,24.0,52,0.00,,,0.00,Weather View 32 v70,2013-03-05 20:15:00,
2013-03-05 14:20:00,68.2,48.8,30.00,NNE,22,11.0,24.0,50,0.00,,,0.00,Weather View 32 v70,2013-03-05 20:20:00,
2013-03-05 14:25:00,68.6,49.7,30.00,North,360,19.0,25.0,51,0.00,,,0.00,Weather View 32 v70,2013-03-05 20:25:00,
2013-03-05 14:30:00,68.3,47.8,30.00,NE,45,14.0,25.0,48,0.00,,,0.00,Weather View 32 v70,2013-03-05 20:30:00,
2013-03-05 14:35:00,68.9,51.5,29.99,NNE,22,12.0,25.0,54,0.00,,,0.00,Weather View 32 v70,2013-03-05 20:35:00,
2013-03-05 14:40:00,68.9,51.0,30.00,North,360,16.0,25.0,53,0.00,,,0.00,Weather View 32 v70,2013-03-05 20:40:00,
2013-03-05 14:45:00,68.8,50.4,30.00,NNE,22,12.0,25.0,52,0.00,,,0.00,Weather View 32 v70,2013-03-05 20:45:00,
2013-03-05 14:50:00,68.9,48.9,30.00,NNW,337,14.0,25.0,49,0.00,,,0.00,Weather View 32 v70,2013-03-05 20:50:00,
2013-03-05 14:55:00,68.9,50.5,30.00,North,360,20.0,25.0,52,0.00,,,0.00,Weather View 32 v70,2013-03-05 20:55:00,
2013-03-05 15:00:00,68.4,49.5,30.01,NE,45,16.0,25.0,51,0.00,,,0.00,Weather View 32 v70,2013-03-05 21:00:00,
2013-03-05 15:05:00,69.4,50.4,30.00,North,360,14.0,25.0,51,0.00,,,0.00,Weather View 32 v70,2013-03-05 21:05:00,
2013-03-05 15:10:00,68.7,49.3,30.01,North,360,15.0,25.0,50,0.00,,,0.00,Weather View 32 v70,2013-03-05 21:10:00,
2013-03-05 15:15:00,68.9,50.0,30.01,North,360,12.0,25.0,51,0.00,,,0.00,Weather View 32 v70,2013-03-05 21:15:00,
2013-03-05 15:20:00,69.0,49.0,30.01,NNE,22,7.0,25.0,49,0.00,,,0.00,Weather View 32 v70,2013-03-05 21:20:00,
2013-03-05 15:25:00,69.1,48.0,30.01,NE,45,16.0,23.0,47,0.00,,,0.00,Weather View 32 v70,2013-03-05 21:25:00,
2013-03-05 15:30:00,68.9,48.9,30.00,NNE,22,16.0,22.0,49,0.00,,,0.00,Weather View 32 v70,2013-03-05 21:30:00,
2013-03-05 15:35:00,69.3,50.3,30.01,North,360,10.0,22.0,51,0.00,,,0.00,Weather View 32 v70,2013-03-05 21:35:00,
2013-03-05 15:40:00,69.2,47.5,30.01,NNE,22,12.0,22.0,46,0.00,,,0.00,Weather View 32 v70,2013-03-05 21:40:00,
2013-03-05 15:45:00,69.1,49.6,30.01,NE,45,11.0,22.0,50,0.00,,,0.00,Weather View 32 v70,2013-03-05 21:45:00,
2013-03-05 15:50:00,69.3,47.6,30.01,NE,45,12.0,22.0,46,0.00,,,0.00,Weather View 32 v70,2013-03-05 21:50:00,
2013-03-05 15:55:00,68.7,48.7,30.01,North,360,14.0,22.0,49,0.00,,,0.00,Weather View 32 v70,2013-03-05 21:55:00,
2013-03-05 16:00:00,68.4,48.4,30.01,North,360,14.0,22.0,49,0.00,,,0.00,Weather View 32 v70,2013-03-05 22:00:00,
2013-03-05 16:05:00,67.9,47.4,30.01,NNW,337,15.0,23.0,48,0.00,,,0.00,Weather View 32 v70,2013-03-05 22:05:00,
2013-03-05 16:10:00,68.3,48.3,30.02,NNE,22,12.0,25.0,49,0.00,,,0.00,Weather View 32 v70,2013-03-05 22:10:00,
2013-03-05 16:15:00,68.3,1.7,30.03,NNE,22,14.0,26.0,7,0.00,,,0.00,Weather View 32 v70,2013-03-05 22:15:00,
2013-03-05 16:20:00,67.7,1.3,30.03,NNE,22,17.0,26.0,7,0.00,,,0.00,Weather View 32 v70,2013-03-05 22:20:00,
2013-03-05 16:25:00,67.6,-2.1,30.03,North,360,14.0,26.0,6,0.00,,,0.00,Weather View 32 v70,2013-03-05 22:25:00,
2013-03-05 16:30:00,67.5,1.1,30.02,NNE,22,10.0,26.0,7,0.00,,,0.00,Weather View 32 v70,2013-03-05 22:30:00,
2013-03-05 16:36:00,67.7,-2.0,30.02,North,360,6.0,26.0,6,0.00,,,0.00,Weather View 32 v70,2013-03-05 22:36:00,
2013-03-05 16:41:00,67.4,1.1,30.02,NE,45,13.0,26.0,7,0.00,,,0.00,Weather View 32 v70,2013-03-05 22:41:00,
2013-03-05 16:46:00,67.5,4.0,30.03,ENE,67,7.0,26.0,8,0.00,,,0.00,Weather View 32 v70,2013-03-05 22:46:00,
2013-03-05 16:51:00,67.7,6.7,30.03,NNE,22,14.0,26.0,9,0.00,,,0.00,Weather View 32 v70,2013-03-05 22:51:00,
2013-03-05 16:56:00,67.7,6.7,30.03,NNW,337,7.0,26.0,9,0.00,,,0.00,Weather View 32 v70,2013-03-05 22:56:00,
2013-03-05 17:01:00,67.6,46.0,30.03,NNE,22,12.0,26.0,46,0.00,,,0.00,Weather View 32 v70,2013-03-05 23:01:00,
2013-03-05 17:06:00,67.6,46.0,30.03,NNE,22,12.0,26.0,46,0.00,,,0.00,Weather View 32 v70,2013-03-05 23:06:00,
2013-03-05 17:11:00,67.6,46.0,30.03,NNE,22,12.0,26.0,46,0.00,,,0.00,Weather View 32 v70,2013-03-05 23:11:00,
2013-03-05 17:16:00,67.6,46.0,30.03,NNE,22,12.0,22.0,46,0.00,,,0.00,Weather View 32 v70,2013-03-05 23:16:00,
2013-03-05 17:21:00,67.6,46.0,30.03,NNE,22,12.0,21.0,46,0.00,,,0.00,Weather View 32 v70,2013-03-05 23:21:00,
2013-03-05 17:26:00,67.6,46.0,30.03,NNE,22,12.0,21.0,46,0.00,,,0.00,Weather View 32 v70,2013-03-05 23:26:00,
2013-03-05 17:31:00,67.6,46.0,30.03,NNE,22,12.0,20.0,46,0.00,,,0.00,Weather View 32 v70,2013-03-05 23:31:00,
2013-03-05 17:36:00,67.6,46.0,30.03,NNE,22,12.0,20.0,46,0.00,,,0.00,Weather View 32 v70,2013-03-05 23:36:00,
2013-03-05 17:41:00,67.6,46.0,30.03,NNE,22,12.0,17.0,46,0.00,,,0.00,Weather View 32 v70,2013-03-05 23:41:00,
2013-03-05 17:46:00,67.6,46.0,30.03,NNE,22,12.0,17.0,46,0.00,,,0.00,Weather View 32 v70,2013-03-05 23:46:00,
2013-03-05 17:51:00,67.6,46.0,30.03,NNE,22,12.0,17.0,46,0.00,,,0.00,Weather View 32 v70,2013-03-05 23:51:00,
2013-03-05 17:56:00,67.6,46.0,30.03,NNE,22,12.0,17.0,46,0.00,,,0.00,Weather View 32 v70,2013-03-05 23:56:00,
2013-03-05 18:01:00,67.6,46.0,30.03,NNE,22,12.0,12.0,46,0.00,,,0.00,Weather View 32 v70,2013-03-06 00:01:00,
2013-03-05 18:06:00,67.6,46.0,30.03,NNE,22,12.0,12.0,46,0.00,,,0.00,Weather View 32 v70,2013-03-06 00:06:00,
2013-03-05 18:11:00,67.6,46.0,30.03,NNE,22,12.0,12.0,46,0.00,,,0.00,Weather View 32 v70,2013-03-06 00:11:00,
2013-03-05 18:16:00,67.6,46.0,30.03,NNE,22,12.0,12.0,46,0.00,,,0.00,Weather View 32 v70,2013-03-06 00:16:00,
2013-03-05 18:21:00,67.6,46.0,30.03,NNE,22,12.0,12.0,46,0.00,,,0.00,Weather View 32 v70,2013-03-06 00:21:00,
2013-03-05 18:26:00,67.6,46.0,30.03,NNE,22,12.0,12.0,46,0.00,,,0.00,Weather View 32 v70,2013-03-06 00:26:00,
2013-03-05 18:31:00,67.6,46.0,30.03,NNE,22,12.0,12.0,46,0.00,,,0.00,Weather View 32 v70,2013-03-06 00:31:00,
2013-03-05 18:36:00,67.6,46.0,30.03,NNE,22,12.0,12.0,46,0.00,,,0.00,Weather View 32 v70,2013-03-06 00:36:00,
2013-03-05 18:41:00,67.6,46.0,30.03,NNE,22,12.0,12.0,46,0.00,,,0.00,Weather View 32 v70,2013-03-06 00:41:00,
2013-03-05 18:46:00,67.6,46.0,30.03,NNE,22,12.0,12.0,46,0.00,,,0.00,Weather View 32 v70,2013-03-06 00:46:00,
2013-03-05 18:51:00,67.6,46.0,30.03,NNE,22,12.0,12.0,46,0.00,,,0.00,Weather View 32 v70,2013-03-06 00:51:00,
2013-03-05 18:56:00,67.6,46.0,30.03,NNE,22,12.0,12.0,46,0.00,,,0.00,Weather View 32 v70,2013-03-06 00:56:00,
2013-03-05 19:01:00,67.6,46.0,30.03,NNE,22,12.0,12.0,46,0.00,,,0.00,Weather View 32 v70,2013-03-06 01:01:00,
2013-03-05 19:06:00,67.6,46.0,30.03,NNE,22,12.0,12.0,46,0.00,,,0.00,Weather View 32 v70,2013-03-06 01:06:00,
2013-03-05 19:11:00,67.6,46.0,30.03,NNE,22,12.0,12.0,46,0.00,,,0.00,Weather View 32 v70,2013-03-06 01:11:00,
2013-03-05 19:16:00,67.6,46.0,30.03,NNE,22,12.0,12.0,46,0.00,,,0.00,Weather View 32 v70,2013-03-06 01:16:00,
2013-03-05 19:21:00,67.6,46.0,30.03,NNE,22,12.0,12.0,46,0.00,,,0.00,Weather View 32 v70,2013-03-06 01:21:00,
2013-03-05 19:26:00,67.6,46.0,30.03,NNE,22,12.0,12.0,46,0.00,,,0.00,Weather View 32 v70,2013-03-06 01:26:00,
2013-03-05 19:31:00,67.6,46.0,30.03,NNE,22,12.0,12.0,46,0.00,,,0.00,Weather View 32 v70,2013-03-06 01:31:00,
2013-03-05 19:36:00,67.6,46.0,30.03,NNE,22,12.0,12.0,46,0.00,,,0.00,Weather View 32 v70,2013-03-06 01:36:00,
2013-03-05 19:41:00,67.6,46.0,30.03,NNE,22,12.0,12.0,46,0.00,,,0.00,Weather View 32 v70,2013-03-06 01:41:00,
2013-03-05 19:46:00,67.6,46.0,30.03,NNE,22,12.0,12.0,46,0.00,,,0.00,Weather View 32 v70,2013-03-06 01:46:00,
2013-03-05 19:51:00,67.6,46.0,30.03,NNE,22,12.0,12.0,46,0.00,,,0.00,Weather View 32 v70,2013-03-06 01:51:00,
2013-03-05 19:56:00,67.6,46.0,30.03,NNE,22,12.0,12.0,46,0.00,,,0.00,Weather View 32 v70,2013-03-06 01:56:00,
2013-03-05 20:01:00,67.6,46.0,30.03,NNE,22,12.0,12.0,46,0.00,,,0.00,Weather View 32 v70,2013-03-06 02:01:00,
2013-03-05 20:06:00,67.6,46.0,30.03,NNE,22,12.0,12.0,46,0.00,,,0.00,Weather View 32 v70,2013-03-06 02:06:00,
2013-03-05 20:11:00,67.6,46.0,30.03,NNE,22,12.0,12.0,46,0.00,,,0.00,Weather View 32 v70,2013-03-06 02:11:00,
2013-03-05 20:16:00,67.6,46.0,30.03,NNE,22,12.0,12.0,46,0.00,,,0.00,Weather View 32 v70,2013-03-06 02:16:00,
2013-03-05 20:21:00,67.6,46.0,30.03,NNE,22,12.0,12.0,46,0.00,,,0.00,Weather View 32 v70,2013-03-06 02:21:00,
2013-03-05 20:26:00,67.6,46.0,30.03,NNE,22,12.0,12.0,46,0.00,,,0.00,Weather View 32 v70,2013-03-06 02:26:00,
2013-03-05 20:31:00,67.6,46.0,30.03,NNE,22,12.0,12.0,46,0.00,,,0.00,Weather View 32 v70,2013-03-06 02:31:00,
2013-03-05 20:36:00,67.6,46.0,30.03,NNE,22,12.0,12.0,46,0.00,,,0.00,Weather View 32 v70,2013-03-06 02:36:00,
2013-03-05 20:41:00,67.6,46.0,30.03,NNE,22,12.0,12.0,46,0.00,,,0.00,Weather View 32 v70,2013-03-06 02:41:00,
2013-03-05 20:46:00,67.6,46.0,30.03,NNE,22,12.0,12.0,46,0.00,,,0.00,Weather View 32 v70,2013-03-06 02:46:00,
2013-03-05 20:51:00,67.6,46.0,30.03,NNE,22,12.0,12.0,46,0.00,,,0.00,Weather View 32 v70,2013-03-06 02:51:00,
2013-03-05 20:56:00,67.6,46.0,30.03,NNE,22,12.0,12.0,46,0.00,,,0.00,Weather View 32 v70,2013-03-06 02:56:00,
2013-03-05 21:01:00,67.6,46.0,30.03,NNE,22,12.0,12.0,46,0.00,,,0.00,Weather View 32 v70,2013-03-06 03:01:00,
2013-03-05 21:06:00,67.6,46.0,30.03,NNE,22,12.0,12.0,46,0.00,,,0.00,Weather View 32 v70,2013-03-06 03:06:00,
2013-03-05 21:11:00,67.6,46.0,30.03,NNE,22,12.0,12.0,46,0.00,,,0.00,Weather View 32 v70,2013-03-06 03:11:00,
2013-03-05 21:16:00,67.6,46.0,30.03,NNE,22,12.0,12.0,46,0.00,,,0.00,Weather View 32 v70,2013-03-06 03:16:00,
2013-03-05 21:21:00,67.6,46.0,30.03,NNE,22,12.0,12.0,46,0.00,,,0.00,Weather View 32 v70,2013-03-06 03:21:00,
2013-03-05 21:26:00,67.6,46.0,30.03,NNE,22,12.0,12.0,46,0.00,,,0.00,Weather View 32 v70,2013-03-06 03:26:00,
2013-03-05 21:31:00,67.6,46.0,30.03,NNE,22,12.0,12.0,46,0.00,,,0.00,Weather View 32 v70,2013-03-06 03:31:00,
2013-03-05 21:36:00,67.6,46.0,30.03,NNE,22,12.0,12.0,46,0.00,,,0.00,Weather View 32 v70,2013-03-06 03:36:00,
2013-03-05 21:41:00,67.6,46.0,30.03,NNE,22,12.0,12.0,46,0.00,,,0.00,Weather View 32 v70,2013-03-06 03:41:00,
2013-03-05 21:46:00,67.6,46.0,30.03,NNE,22,12.0,12.0,46,0.00,,,0.00,Weather View 32 v70,2013-03-06 03:46:00,
2013-03-05 21:51:00,67.6,46.0,30.03,NNE,22,12.0,12.0,46,0.00,,,0.00,Weather View 32 v70,2013-03-06 03:51:00,
2013-03-05 21:56:00,67.6,46.0,30.03,NNE,22,12.0,12.0,46,0.00,,,0.00,Weather View 32 v70,2013-03-06 03:56:00,
2013-03-05 22:01:00,67.6,46.0,30.03,NNE,22,12.0,12.0,46,0.00,,,0.00,Weather View 32 v70,2013-03-06 04:01:00,
2013-03-05 22:06:00,67.6,46.0,30.03,NNE,22,12.0,12.0,46,0.00,,,0.00,Weather View 32 v70,2013-03-06 04:06:00,
2013-03-05 22:11:00,67.6,46.0,30.03,NNE,22,12.0,12.0,46,0.00,,,0.00,Weather View 32 v70,2013-03-06 04:11:00,
2013-03-05 22:16:00,67.6,46.0,30.03,NNE,22,12.0,12.0,46,0.00,,,0.00,Weather View 32 v70,2013-03-06 04:16:00,
2013-03-05 22:21:00,67.6,46.0,30.03,NNE,22,12.0,12.0,46,0.00,,,0.00,Weather View 32 v70,2013-03-06 04:21:00,
2013-03-05 22:26:00,67.6,46.0,30.03,NNE,22,12.0,12.0,46,0.00,,,0.00,Weather View 32 v70,2013-03-06 04:26:00,
2013-03-05 22:31:00,67.6,46.0,30.03,NNE,22,12.0,12.0,46,0.00,,,0.00,Weather View 32 v70,2013-03-06 04:31:00,
2013-03-05 22:36:00,67.6,46.0,30.03,NNE,22,12.0,12.0,46,0.00,,,0.00,Weather View 32 v70,2013-03-06 04:36:00,
2013-03-05 22:41:00,67.6,46.0,30.03,NNE,22,12.0,12.0,46,0.00,,,0.00,Weather View 32 v70,2013-03-06 04:41:00,
2013-03-05 22:46:00,67.6,46.0,30.03,NNE,22,12.0,12.0,46,0.00,,,0.00,Weather View 32 v70,2013-03-06 04:46:00,
2013-03-05 22:51:00,67.6,46.0,30.03,NNE,22,12.0,12.0,46,0.00,,,0.00,Weather View 32 v70,2013-03-06 04:51:00,
2013-03-05 22:56:00,67.6,46.0,30.03,NNE,22,12.0,12.0,46,0.00,,,0.00,Weather View 32 v70,2013-03-06 04:56:00,
2013-03-05 23:00:00,67.6,46.0,30.03,NNE,22,12.0,12.0,46,0.00,,,0.00,Weather View 32 v70,2013-03-06 05:00:00,
2013-03-05 23:01:00,67.6,46.0,30.03,NNE,22,12.0,12.0,46,0.00,,,0.00,Weather View 32 v70,2013-03-06 05:01:00,
2013-03-05 23:06:00,67.6,46.0,30.03,NNE,22,12.0,12.0,46,0.00,,,0.00,Weather View 32 v70,2013-03-06 05:06:00,
2013-03-05 23:11:00,67.6,46.0,30.03,NNE,22,12.0,12.0,46,0.00,,,0.00,Weather View 32 v70,2013-03-06 05:11:00,
2013-03-05 23:16:00,67.6,46.0,30.03,NNE,22,12.0,12.0,46,0.00,,,0.00,Weather View 32 v70,2013-03-06 05:16:00,
2013-03-05 23:21:00,67.6,46.0,30.03,NNE,22,12.0,12.0,46,0.00,,,0.00,Weather View 32 v70,2013-03-06 05:21:00,
2013-03-05 23:26:00,67.6,46.0,30.03,NNE,22,12.0,12.0,46,0.00,,,0.00,Weather View 32 v70,2013-03-06 05:26:00,
2013-03-05 23:31:00,67.6,46.0,30.03,NNE,22,12.0,12.0,46,0.00,,,0.00,Weather View 32 v70,2013-03-06 05:31:00,
2013-03-05 23:36:00,67.6,46.0,30.03,NNE,22,12.0,12.0,46,0.00,,,0.00,Weather View 32 v70,2013-03-06 05:36:00,
2013-03-05 23:41:00,67.6,46.0,30.03,NNE,22,12.0,12.0,46,0.00,,,0.00,Weather View 32 v70,2013-03-06 05:41:00,
2013-03-05 23:46:00,67.6,46.0,30.03,NNE,22,12.0,12.0,46,0.00,,,0.00,Weather View 32 v70,2013-03-06 05:46:00,
2013-03-05 23:51:00,67.6,46.0,30.03,NNE,22,12.0,12.0,46,0.00,,,0.00,Weather View 32 v70,2013-03-06 05:51:00,
2013-03-05 23:56:00,67.6,46.0,30.03,NNE,22,12.0,12.0,46,0.00,,,0.00,Weather View 32 v70,2013-03-06 05:56:00,